Repülésmeteorológia

  • METAR LHSM 271945Z 31002KT CAVOK 07/M02 Q1026=
  • METAR LHSM 271915Z 29002KT CAVOK 07/M03 Q1026=
  • METAR LHSM 271845Z 25002KT CAVOK 07/M03 Q1026=
  • METAR LHSM 271815Z 25003KT CAVOK 08/M03 Q1025=
  • METAR LHSM 271745Z 20002KT CAVOK 09/M03 Q1025=

  • TAF LHSM 271100Z 2712/2721 VRB03KT CAVOK=
  • TAF LHSM 270800Z 2709/2718 VRB03KT CAVOK=
  • TAF LHSM 270500Z 2706/2715 32005KT CAVOK=
  • TAF LHSM 261100Z 2612/2621 36012KT CAVOK BECMG 2612/2615 04006KT=
  • TAF LHSM 260800Z 2609/2618 35018G30KT 9999 SCT040